^^
WoodinvilleWX Historical Data
 
Daily Summary for June 19, 2019 Units:  English    Metric   Both
Daily Weekly Monthly Yearly Custom
  Current: High: Low: Average:
Temperature: 53.4 °F 53.8 °F 51.9 °F 52.5 °F
Dew Point: 48.37 °F 50.34 °F 47.93 °F 48.6 °F
Humidity: 83% 89% 82% 87%
Wind Speed: 1mph 1mph 0mph 0mph
Wind Gust: 4mph 4mph - -
WindSSE - - SSE
Pressure: 30.21 in 30.21 in 30.17 in -
Precipitation: 0 in      
Historical Graphs
 
 
Tabular Data for June 19, 2019
Time Temperature Dew Point Pressure Wind Wind Speed Wind Gust Humidity Rainfall Rate (Hourly)
00:04 53.8 °F 50.34 °F 30.18 in Calm     88% 0 in
00:09 53.7 °F 50.24 °F 30.17 in Calm     88% 0 in
00:14 53.5 °F 50.04 °F 30.17 in Calm     88% 0 in
00:19 53.4 °F 49.94 °F 30.17 in Calm     88% 0 in
00:24 53.3 °F 50.15 °F 30.18 in Calm     89% 0 in
00:29 53.2 °F 50.05 °F 30.18 in Calm     89% 0 in
00:34 53.1 °F 49.95 °F 30.18 in Calm     89% 0 in
00:39 53.1 °F 49.95 °F 30.18 in Calm     89% 0 in
00:44 53 °F 49.85 °F 30.18 in Calm     89% 0 in
00:49 53 °F 49.85 °F 30.18 in Calm     89% 0 in
00:54 53 °F 49.55 °F 30.18 in Calm     88% 0 in
00:59 53 °F 49.24 °F 30.19 in Calm     87% 0 in
01:04 53 °F 49.55 °F 30.19 in Calm     88% 0 in
01:09 53 °F 48.62 °F 30.19 in Calm   1 mph 85% 0 in
01:14 52.9 °F 48.52 °F 30.19 in Calm     85% 0 in
01:19 52.9 °F 48.52 °F 30.19 in Calm     85% 0 in
01:24 52.9 °F 48.83 °F 30.19 in Calm     86% 0 in
01:29 52.9 °F 48.52 °F 30.19 in Calm   1 mph 85% 0 in
01:34 52.8 °F 48.42 °F 30.19 in Calm     85% 0 in
01:39 52.8 °F 48.42 °F 30.19 in Calm     85% 0 in
01:44 52.8 °F 49.04 °F 30.19 in Calm     87% 0 in
01:49 52.8 °F 48.42 °F 30.19 in Calm     85% 0 in
01:54 52.8 °F 48.73 °F 30.19 in Calm     86% 0 in
01:59 52.8 °F 48.42 °F 30.19 in Calm     85% 0 in
02:04 52.8 °F 48.73 °F 30.19 in Calm     86% 0 in
02:09 52.7 °F 48.32 °F 30.19 in Calm     85% 0 in
02:14 52.7 °F 48.95 °F 30.19 in Calm     87% 0 in
02:19 52.6 °F 48.54 °F 30.19 in Calm     86% 0 in
02:24 52.6 °F 48.23 °F 30.19 in Calm     85% 0 in
02:29 52.6 °F 48.23 °F 30.19 in Calm     85% 0 in
02:34 52.5 °F 48.13 °F 30.19 in Calm     85% 0 in
02:39 52.5 °F 48.44 °F 30.19 in Calm     86% 0 in
02:44 52.5 °F 48.44 °F 30.19 in Calm     86% 0 in
02:49 52.5 °F 48.75 °F 30.19 in Calm     87% 0 in
02:54 52.4 °F 48.03 °F 30.19 in Calm     85% 0 in
02:59 52.4 °F 48.65 °F 30.19 in Calm     87% 0 in
03:04 52.4 °F 48.34 °F 30.19 in Calm     86% 0 in
03:09 52.4 °F 48.65 °F 30.19 in Calm     87% 0 in
03:14 52.3 °F 48.24 °F 30.19 in Calm     86% 0 in
03:19 52.3 °F 47.93 °F 30.19 in Calm     85% 0 in
03:24 52.3 °F 47.93 °F 30.19 in Calm     85% 0 in
03:29 52.2 °F 48.15 °F 30.19 in Calm     86% 0 in
03:34 52.2 °F 48.15 °F 30.19 in Calm     86% 0 in
03:39 52.3 °F 48.24 °F 30.19 in Calm     86% 0 in
03:44 52.2 °F 48.15 °F 30.19 in Calm     86% 0 in
03:49 52.3 °F 48.55 °F 30.19 in Calm     87% 0 in
03:54 52.3 °F 48.55 °F 30.19 in Calm     87% 0 in
03:59 52.3 °F 48.24 °F 30.19 in Calm     86% 0 in
04:04 52.3 °F 48.55 °F 30.19 in Calm     87% 0 in
04:09 52.2 °F 48.15 °F 30.19 in Calm     86% 0 in
04:14 52.2 °F 48.15 °F 30.19 in Calm     86% 0 in
04:19 52.2 °F 48.15 °F 30.19 in Calm     86% 0 in
04:24 52.1 °F 48.36 °F 30.19 in Calm     87% 0 in
04:29 52.1 °F 48.36 °F 30.19 in Calm     87% 0 in
04:34 52.1 °F 48.36 °F 30.19 in Calm     87% 0 in
04:39 52.1 °F 48.05 °F 30.19 in Calm     86% 0 in
04:44 52.1 °F 48.05 °F 30.19 in Calm     86% 0 in
04:49 52.1 °F 48.05 °F 30.19 in Calm     86% 0 in
04:54 52 °F 47.95 °F 30.19 in Calm     86% 0 in
04:59 52 °F 47.95 °F 30.19 in Calm     86% 0 in
05:04 52 °F 47.95 °F 30.20 in Calm     86% 0 in
05:09 51.9 °F 48.16 °F 30.20 in Calm     87% 0 in
05:14 51.9 °F 48.16 °F 30.20 in Calm     87% 0 in
05:19 52 °F 48.56 °F 30.20 in Calm     88% 0 in
05:24 52 °F 48.56 °F 30.20 in Calm     88% 0 in
05:29 51.9 °F 48.46 °F 30.20 in Calm     88% 0 in
05:34 52 °F 48.56 °F 30.20 in Calm     88% 0 in
05:39 52 °F 48.56 °F 30.20 in Calm     88% 0 in
05:44 52 °F 48.56 °F 30.20 in Calm     88% 0 in
05:49 52 °F 48.26 °F 30.20 in Calm     87% 0 in
05:54 52 °F 48.56 °F 30.20 in Calm     88% 0 in
05:59 52 °F 48.56 °F 30.20 in Calm     88% 0 in
06:04 52 °F 48.26 °F 30.20 in Calm     87% 0 in
06:09 52.1 °F 48.66 °F 30.20 in Calm     88% 0 in
06:14 52.1 °F 48.66 °F 30.20 in Calm     88% 0 in
06:19 52.2 °F 48.76 °F 30.20 in Calm     88% 0 in
06:24 52.2 °F 48.76 °F 30.20 in Calm     88% 0 in
06:29 52.3 °F 49.16 °F 30.20 in Calm     89% 0 in
06:34 52.4 °F 48.96 °F 30.20 in Calm     88% 0 in
06:39 52.5 °F 49.05 °F 30.20 in Calm     88% 0 in
06:44 52.6 °F 49.15 °F 30.20 in Calm     88% 0 in
06:49 52.6 °F 48.85 °F 30.20 in Calm     87% 0 in
06:54 52.7 °F 48.95 °F 30.20 in Calm   1 mph 87% 0 in
06:59 52.8 °F 48.73 °F 30.20 in Calm     86% 0 in
07:04 52.8 °F 48.42 °F 30.20 in Calm     85% 0 in
07:09 52.9 °F 48.2 °F 30.21 in Calm   1 mph 84% 0 in
07:14 53 °F 48.3 °F 30.20 in Calm     84% 0 in
07:19 53 °F 47.98 °F 30.20 in SE 1 mph 2 mph 83% 0 in
07:24 53.2 °F 48.18 °F 30.20 in Calm   4 mph 83% 0 in
07:29 53.3 °F 47.95 °F 30.20 in Calm   3 mph 82% 0 in
07:34 53.4 °F 48.05 °F 30.20 in Calm   4 mph 82% 0 in
07:39 53.4 °F 48.37 °F 30.21 in SSE 1 mph 4 mph 83% 0 in
Woodinville, Washington USA
Compliments of Weather Underground - 4 mb